• Join FlightAware (Why Join?)
  • Login
  • US Flag 
 
05:09AM EST


 

Airport Tracker/Info


-or-


 

Live Flight TrackerFlight Track Log ✈ EJA729 ✈ 29-Jun-2013 ✈ KAVP - KSJC

Flight Track Log - Related Links

Times and Time Zones

All times are in EDT time to prevent confusion due to time zone crossing. See the EJA729 flight status page for this flight to view local times or setup timezone preferences in your user account.

Time Position Orientation Groundspeed Altitude Reporting Facility
EDT Latitude Longitude Course Direction KTS MPH feet Rate Location/Type
11:15PM 41.3019 -75.7614 222° Southwest 209 241 2,400  Level New York Center
11:16PM 41.2539 -75.8186 222° Southwest 234 269 5,700 2,700 Climbing New York Center
11:17PM 41.2261 -75.8797 239° Southwest 228 262 7,900 1,140 Climbing New York Center
11:18PM 41.1892 -75.9625 239° Southwest 249 287 8,000  Climbing New York Center
11:19PM 41.1475 -76.0586 240° Southwest 276 318 8,000  Level New York Center
11:20PM 41.1100 -76.1492 241° Southwest 276 318 8,000 1,200 Level New York Center
11:21PM 41.0706 -76.2369 239° Southwest 281 323 10,500 2,700 Climbing New York Center
11:22PM 41.0311 -76.3272 240° Southwest 297 342 13,500 3,120 Climbing New York Center
11:23PM 40.9839 -76.4417 241° Southwest 315 362 16,700 2,940 Climbing New York Center
11:24PM 40.9417 -76.5369 240° Southwest 330 380 19,300 2,400 Climbing New York Center
11:25PM 40.8950 -76.6403 239° Southwest 330 380 21,600 1,980 Climbing New York Center
11:26PM 40.8481 -76.7486 240° Southwest 336 387 23,400 1,860 Climbing New York Center
11:27PM 40.8006 -76.8597 241° Southwest 341 392 25,400 1,740 Climbing New York Center
11:28PM 40.7961 -76.9856 267° West 338 389 26,900 1,320 Climbing New York Center
11:29PM 40.8161 -77.1217 281° West 349 402 28,100 960 Climbing New York Center
11:30PM 40.8331 -77.2658 279° West 381 438 28,900 900 Climbing New York Center
11:31PM 40.8522 -77.4103 280° West 397 457 30,000 960 Climbing New York Center
11:33PM 40.8867 -77.7458 278° West 404 465 31,900 900 Climbing Cleveland Center
11:34PM 40.9028 -77.8908 278° West 409 471 32,900 960 Climbing Cleveland Center
11:35PM 40.9183 -78.0331 278° West 404 465 33,900 540 Climbing Cleveland Center
11:36PM 40.9358 -78.1672 280° West 409 471 34,000  Climbing Cleveland Center
11:37PM 40.9581 -78.3258 281° West 409 471 34,000  Level Cleveland Center
11:38PM 40.9753 -78.4681 279° West 404 465 34,000  Level Cleveland Center
11:39PM 40.9925 -78.6106 279° West 404 465 34,000  Level Cleveland Center
11:40PM 41.0094 -78.7533 279° West 404 465 34,000  Level Cleveland Center
11:41PM 41.0264 -78.9014 279° West 404 465 34,000  Level Cleveland Center
11:42PM 41.0428 -79.0442 279° West 404 465 34,000  Level Cleveland Center
11:43PM 41.0594 -79.1897 279° West 404 465 34,000  Level Cleveland Center
11:44PM 41.0756 -79.3353 278° West 404 465 34,000  Level Cleveland Center
11:45PM 41.0939 -79.4867 279° West 409 471 34,000  Level Cleveland Center
11:46PM 41.1097 -79.6378 278° West 409 471 34,000  Level Cleveland Center
11:47PM 41.1275 -79.7975 278° West 426 490 34,000  Level Cleveland Center
11:48PM 41.1411 -79.9628 276° West 438 504 34,000  Level Cleveland Center
11:49PM 41.1628 -80.1225 280° West 443 510 34,000  Level Cleveland Center
11:50PM 41.1800 -80.2825 278° West 443 510 34,000  Level Cleveland Center
11:51PM 41.1950 -80.4506 277° West 449 517 34,000  Level Cleveland Center
11:52PM 41.2117 -80.6108 278° West 449 517 34,000  Level Cleveland Center
11:53PM 41.2281 -80.7736 278° West 449 517 34,000  Level Cleveland Center
11:54PM 41.2444 -80.9394 278° West 449 517 34,000  Level Cleveland Center
11:55PM 41.2583 -81.0886 277° West 449 517 34,000  Level Cleveland Center
11:56PM 41.2742 -81.2517 277° West 450 518 34,000  Level Cleveland Center
11:57PM 41.2939 -81.4289 278° West 450 518 34,000  Level Cleveland Center
11:58PM 41.3092 -81.5950 277° West 445 512 34,000 300 Level Cleveland Center
11:59PM 41.3222 -81.7581 276° West 445 512 34,600 600 Climbing Cleveland Center
12:00AM 41.3392 -81.9189 278° West 445 512 35,300 660 Climbing Cleveland Center
12:01AM 41.3519 -82.0825 276° West 445 512 36,000 300 Climbing Cleveland Center
12:02AM 41.3619 -82.2514 275° West 453 521 36,000  Level Cleveland Center
12:03AM 41.3703 -82.3983 274° West 453 521 36,000  Level Cleveland Center
12:04AM 41.3800 -82.5617 275° West 453 521 36,000  Level Cleveland Center
12:05AM 41.3894 -82.7281 274° West 448 516 36,000  Level Cleveland Center
12:06AM 41.3989 -82.8944 274° West 448 516 36,000  Level Cleveland Center
12:07AM 41.4078 -83.0611 274° West 448 516 36,000  Level Cleveland Center
12:08AM 41.4144 -83.2247 273° West 454 522 36,000  Level Cleveland Center
12:09AM 41.4231 -83.3911 274° West 454 522 36,000  Level Cleveland Center
12:10AM 41.4311 -83.5633 274° West 454 522 36,000  Level Cleveland Center
12:11AM 41.4394 -83.7272 274° West 454 522 36,000  Level Cleveland Center
12:12AM 41.4481 -83.8842 274° West 454 522 36,000  Level Chicago Center
12:13AM 41.4561 -84.0533 274° West 456 525 36,000  Level Chicago Center
12:14AM 41.4636 -84.2219 273° West 457 526 36,000  Level Chicago Center
12:15AM 41.4717 -84.4222 273° West 454 522 36,000  Level Chicago Center
12:16AM 41.4781 -84.5922 273° West 458 527 36,000  Level Chicago Center
12:17AM 41.4850 -84.7625 273° West 459 528 36,000  Level Chicago Center
12:18AM 41.4911 -84.9333 273° West 461 531 36,000  Level Chicago Center
12:19AM 41.4972 -85.1036 273° West 459 528 36,000  Level Chicago Center
12:20AM 41.5022 -85.2761 272° West 462 532 36,000  Level Chicago Center
12:21AM 41.5058 -85.4517 272° West 462 532 36,000  Level Chicago Center
12:22AM 41.5128 -85.6250 273° West 460 529 36,000  Level Chicago Center
12:23AM 41.5172 -85.7956 272° West 459 528 36,000  Level Chicago Center
12:24AM 41.5222 -85.9631 272° West 454 522 36,000  Level Chicago Center
12:25AM 41.5261 -86.1281 272° West 448 516 36,000  Level Chicago Center
12:26AM 41.5294 -86.2939 272° West 446 513 36,000  Level Chicago Center
12:27AM 41.5322 -86.4592 271° West 446 513 36,000  Level Chicago Center
12:28AM 41.5350 -86.6233 271° West 444 511 36,000  Level Chicago Center
12:29AM 41.5381 -86.7797 272° West 440 506 36,000  Level Chicago Center
12:30AM 41.5392 -86.9756 270° West 440 506 36,000  Level Chicago Center
12:31AM 41.5406 -87.1381 271° West 440 506 36,000  Level Chicago Center
12:32AM 41.5419 -87.2997 271° West 437 503 36,000 240 Level Chicago Center
12:33AM 41.5431 -87.4614 271° West 439 505 36,500 540 Climbing Chicago Center
12:34AM 41.5439 -87.6225 270° West 439 505 37,200 540 Climbing Chicago Center
12:35AM 41.5450 -87.7806 271° West 435 501 37,700 360 Climbing Chicago Center
12:36AM 41.5453 -87.9350 270° West 426 490 38,000 120 Climbing Chicago Center
12:37AM 41.5453 -88.0886 270° West 427 491 38,000  Level Chicago Center
12:38AM 41.5464 -88.2756 271° West 432 497 38,000  Level Chicago Center
12:39AM 41.5461 -88.4336 270° West 431 496 38,000  Level Chicago Center
12:40AM 41.5469 -88.5897 270° West 427 491 38,000  Level Chicago Center
12:41AM 41.5481 -88.7481 271° West 429 494 38,000  Level Chicago Center
12:42AM 41.5472 -88.9042 270° West 427 491 38,000  Level Chicago Center
12:43AM 41.5475 -89.0636 270° West 432 497 38,000  Level Chicago Center
12:44AM 41.5483 -89.2225 270° West 432 497 38,000  Level Chicago Center
12:45AM 41.5489 -89.3806 270° West 432 497 38,000  Level Chicago Center
12:47AM 41.5478 -89.5636 270° West 432 497 38,000  Level Chicago Center
12:48AM 41.5478 -89.7203 270° West 428 493 38,000  Level Chicago Center
12:49AM 41.5467 -89.8767 270° West 424 488 38,000  Level Chicago Center
12:50AM 41.5450 -90.0350 269° West 428 493 38,000  Level Chicago Center
12:51AM 41.5439 -90.1919 270° West 427 491 38,000  Level Chicago Center
12:52AM 41.5403 -90.3533 268° West 435 501 38,000  Level Chicago Center
12:53AM 41.5389 -90.5131 269° West 435 501 38,000  Level Chicago Center
12:54AM 41.5364 -90.6719 269° West 431 496 38,000  Level Chicago Center
12:55AM 41.5333 -90.8311 269° West 431 496 38,000  Level Chicago Center
12:56AM 41.5308 -90.9911 269° West 434 499 38,000  Level Chicago Center
12:57AM 41.5289 -91.1483 269° West 429 494 38,000  Level Chicago Center
12:58AM 41.5250 -91.3064 268° West 429 494 38,000  Level Chicago Center
12:59AM 41.5222 -91.4625 269° West 424 488 38,000  Level Chicago Center
01:00AM 41.5186 -91.6153 268° West 417 480 38,000  Level Chicago Center
01:01AM 41.5044 -91.7650 263° West 410 472 38,000  Level Chicago Center
01:02AM 41.4900 -91.9181 263° West 416 479 38,000  Level Chicago Center
01:03AM 41.4719 -92.1025 263° West 420 483 38,000  Level Chicago Center
01:04AM 41.4578 -92.2544 263° West 417 480 38,000  Level Chicago Center
01:05AM 41.4439 -92.3986 263° West 425 489 38,000  Level Chicago Center
01:06AM 41.4286 -92.5533 263° West 425 489 38,000  Level Chicago Center
01:07AM 41.4156 -92.6786 262° West 427 491 38,000  Level Minneapolis Center
01:08AM 41.3992 -92.8347 262° West 429 494 38,000  Level Minneapolis Center
01:09AM 41.3794 -93.0225 262° West 431 496 38,000  Level Minneapolis Center
01:10AM 41.3625 -93.1792 262° West 431 496 38,000  Level Minneapolis Center
01:11AM 41.3456 -93.3347 262° West 430 495 38,000  Level Minneapolis Center
01:12AM 41.3286 -93.4881 262° West 427 491 38,000  Level Minneapolis Center
01:13AM 41.3142 -93.6375 263° West 417 480 38,000  Level Minneapolis Center
01:14AM 41.2967 -93.7922 261° West 423 487 38,000  Level Minneapolis Center
01:15AM 41.2803 -93.9447 262° West 422 486 38,000  Level Minneapolis Center
01:16AM 41.2611 -94.1000 261° West 427 491 38,000  Level Minneapolis Center
01:17AM 41.2414 -94.2756 262° West 423 487 38,000  Level Minneapolis Center
01:18AM 41.2242 -94.4261 261° West 415 478 38,000  Level Minneapolis Center
01:19AM 41.2056 -94.5756 261° West 411 473 38,000  Level Minneapolis Center
01:20AM 41.1883 -94.7231 261° West 406 467 38,000  Level Minneapolis Center
01:21AM 41.1692 -94.8683 260° West 402 463 38,000  Level Minneapolis Center
01:22AM 41.1508 -95.0144 261° West 401 461 38,000  Level Minneapolis Center
01:23AM 41.1331 -95.1619 261° West 402 463 38,000  Level Minneapolis Center
01:24AM 41.1139 -95.3100 260° West 407 468 38,000  Level Minneapolis Center
01:25AM 41.1081 -95.4564 267° West 403 464 38,000  Level Minneapolis Center
01:26AM 41.1092 -95.6044 271° West 401 461 38,000  Level Minneapolis Center
01:27AM 41.1072 -95.7511 269° West 397 457 38,000  Level Minneapolis Center
01:28AM 41.1069 -95.9025 270° West 403 464 38,000  Level Minneapolis Center
01:29AM 41.1061 -96.0556 270° West 408 470 38,000  Level Minneapolis Center
01:30AM 41.1069 -96.2092 270° West 410 472 38,000  Level Minneapolis Center
01:31AM 41.1069 -96.3614 270° West 410 472 38,000  Level Minneapolis Center
01:32AM 41.1056 -96.5125 269° West 408 470 38,000  Level Minneapolis Center
01:33AM 41.1039 -96.6647 269° West 411 473 38,000  Level Minneapolis Center
01:34AM 41.1022 -96.8172 269° West 411 473 38,000  Level Minneapolis Center
01:35AM 41.1014 -96.9717 270° West 418 481 38,000  Level Minneapolis Center
01:36AM 41.0994 -97.1242 269° West 414 476 38,000 240 Level Minneapolis Center
01:37AM 41.0972 -97.2767 269° West 413 475 38,600 540 Climbing Minneapolis Center
01:38AM 41.0953 -97.4247 269° West 413 475 39,200 540 Climbing Minneapolis Center
01:39AM 41.0936 -97.5744 269° West 409 471 39,700 360 Climbing Minneapolis Center
01:40AM 41.0903 -97.7228 268° West 405 466 40,000 120 Climbing Minneapolis Center
01:41AM 41.0872 -97.8703 268° West 401 461 40,000  Level Minneapolis Center
01:42AM 41.0842 -98.0197 268° West 404 465 40,000  Level Minneapolis Center
01:43AM 41.0811 -98.1697 269° West 406 467 40,000  Level Minneapolis Center
01:44AM 41.0783 -98.3189 269° West 405 466 40,000  Level Minneapolis Center
01:45AM 41.0750 -98.4703 268° West 403 464 40,000  Level Minneapolis Center
01:46AM 41.0711 -98.6194 268° West 404 465 40,000  Level Minneapolis Center
01:47AM 41.0678 -98.7714 268° West 408 470 40,000  Level Minneapolis Center
01:48AM 41.0622 -98.9222 267° West 410 472 40,000  Level Minneapolis Center
01:49AM 41.0583 -99.0869 268° West 408 470 40,000  Level Denver Center
01:50AM 41.0542 -99.2336 268° West 412 474 40,000  Level Denver Center
01:51AM 41.0494 -99.3836 268° West 410 472 40,000  Level Denver Center
01:52AM 41.0439 -99.5639 268° West 408 470 40,000  Level Denver Center
01:53AM 41.0389 -99.7150 268° West 410 472 40,000  Level Denver Center
01:54AM 41.0339 -99.8792 268° West 408 470 40,000  Level Denver Center
01:55AM 41.0286 -100.0222 267° West 407 468 40,000  Level Denver Center
01:56AM 41.0219 -100.1869 267° West 404 465 40,000  Level Denver Center
01:57AM 41.0164 -100.3283 267° West 402 463 40,000  Level Denver Center
01:58AM 41.0114 -100.4694 267° West 404 465 40,000  Level Denver Center
01:59AM 41.0053 -100.6344 267° West 406 467 40,000  Level Denver Center
02:00AM 40.9992 -100.7767 267° West 409 471 40,000  Level Denver Center
02:01AM 40.9894 -100.9400 266° West 404 465 40,000  Level Denver Center
02:02AM 40.9831 -101.0808 267° West 405 466 40,000  Level Denver Center
02:03AM 40.9761 -101.2217 266° West 405 466 40,000  Level Denver Center
02:04AM 40.9672 -101.3853 266° West 403 464 40,000  Level Denver Center
02:05AM 40.9600 -101.5281 266° West 407 468 40,000  Level Denver Center
02:06AM 40.9531 -101.6700 266° West 406 467 40,000  Level Denver Center
02:07AM 40.9433 -101.8367 266° West 409 471 40,000  Level Denver Center
02:08AM 40.9353 -101.9789 266° West 407 468 40,000  Level Denver Center
02:09AM 40.9311 -102.1214 268° West 405 466 40,000  Level Denver Center
02:10AM 40.9206 -102.2875 265° West 406 467 40,000  Level Denver Center
02:11AM 40.9114 -102.4294 265° West 408 470 40,000  Level Denver Center
02:12AM 40.8894 -102.5700 258° West 409 471 40,000  Level Denver Center
02:13AM 40.8639 -102.7333 258° West 408 470 40,000  Level Denver Center
02:14AM 40.8428 -102.8744 259° West 411 473 40,000  Level Denver Center
02:15AM 40.8261 -103.0058 261° West 408 470 40,000  Level Denver Center
02:16AM 40.8025 -103.1831 260° West 410 472 40,000  Level Denver Center
02:17AM 40.7828 -103.3314 260° West 413 475 40,000  Level Denver Center
02:18AM 40.7628 -103.4803 260° West 415 478 40,000  Level Denver Center
02:19AM 40.7419 -103.6303 260° West 418 481 40,000  Level Denver Center
02:21AM 40.7217 -103.7811 260° West 420 483 40,000  Level Denver Center
02:22AM 40.7011 -103.9311 260° West 418 481 40,000  Level Denver Center
02:23AM 40.6775 -104.0836 259° West 428 493 40,000  Level Denver Center
02:24AM 40.6569 -104.2353 260° West 425 489 40,000  Level Denver Center
02:25AM 40.6353 -104.3881 259° West 427 491 40,000  Level Denver Center
02:26AM 40.6125 -104.5406 259° West 428 493 40,000  Level Denver Center
02:27AM 40.5897 -104.6958 259° West 433 498 40,000  Level Denver Center
02:28AM 40.5669 -104.8508 259° West 434 499 40,000  Level Denver Center
02:29AM 40.5436 -105.0061 259° West 435 501 40,000  Level Denver Center
02:30AM 40.5156 -105.1897 259° West 430 495 40,000  Level Denver Center
02:31AM 40.4906 -105.3442 258° West 434 499 40,000  Level Denver Center
02:32AM 40.4667 -105.5022 259° West 442 509 40,000  Level Denver Center
02:33AM 40.4425 -105.6592 259° West 442 509 40,000  Level Denver Center
02:34AM 40.4169 -105.8194 258° West 450 518 40,000  Level Denver Center
02:35AM 40.3914 -105.9775 258° West 447 514 40,000  Level Denver Center
02:36AM 40.3658 -106.1372 258° West 449 517 40,000  Level Denver Center
02:37AM 40.3358 -106.3172 258° West 454 522 40,000  Level Denver Center
02:38AM 40.3111 -106.4719 258° West 455 524 40,000  Level Denver Center
02:39AM 40.2836 -106.6369 258° West 454 522 40,000  Level Denver Center
02:40AM 40.2586 -106.7975 259° West 452 520 40,000  Level Denver Center
02:41AM 40.2294 -106.9606 257° West 453 521 40,000  Level Denver Center
02:42AM 40.2039 -107.1147 258° West 454 522 40,000  Level Denver Center
02:43AM 40.1742 -107.2956 258° West 456 525 40,000  Level Denver Center
02:44AM 40.1464 -107.4492 257° West 454 522 40,000  Level Denver Center
02:45AM 40.1206 -107.6039 258° West 456 525 40,000  Level Denver Center
02:46AM 40.0872 -107.7817 256° West 453 521 40,000  Level Denver Center
02:47AM 40.0614 -107.9344 258° West 451 519 40,000  Level Denver Center
02:48AM 40.0342 -108.0861 257° West 448 516 40,000  Level Denver Center
02:49AM 40.0125 -108.2119 257° West 448 516 40,000  Level Denver Center
02:50AM 39.9761 -108.4106 257° West 445 512 40,000  Level Denver Center
02:51AM 39.9489 -108.5614 257° West 450 518 40,000  Level Denver Center
02:52AM 39.9150 -108.7411 256° West 461 531 40,000  Level Denver Center
02:53AM 39.8869 -108.8947 257° West 461 531 40,000  Level Denver Center
02:54AM 39.8575 -109.0494 256° West 465 535 40,000  Level Denver Center
02:55AM 39.8228 -109.2308 256° West 467 537 40,000  Level Denver Center
02:56AM 39.7925 -109.3858 256° West 465 535 40,000  Level Denver Center
02:57AM 39.7617 -109.5425 256° West 468 539 40,000  Level Denver Center
02:58AM 39.7264 -109.7233 256° West 465 535 40,000  Level Denver Center
02:59AM 39.6953 -109.8794 256° West 466 536 40,000  Level Denver Center
03:00AM 39.6542 -110.0872 256° West 466 536 40,000  Level Denver Center
03:01AM 39.6233 -110.2436 256° West 468 539 40,000  Level Denver Center
03:02AM 39.5917 -110.3986 255° West 465 535 40,000  Level Denver Center
03:03AM 39.5547 -110.5808 255° West 468 539 40,000  Level Denver Center
03:04AM 39.5233 -110.7353 255° West 464 534 40,000  Level Denver Center
03:05AM 39.4922 -110.8906 255° West 465 535 40,000  Level Denver Center
03:07AM 39.4444 -111.1208 255° West 464 534 40,000  Level Salt Lake Center
03:08AM 39.4119 -111.2800 255° West 463 533 40,000  Level Salt Lake Center
03:09AM 39.3778 -111.4414 255° West 464 534 40,000  Level Salt Lake Center
03:10AM 39.3433 -111.6014 254° West 462 532 40,000  Level Salt Lake Center
03:11AM 39.3078 -111.7625 254° West 465 535 40,000  Level Salt Lake Center
03:12AM 39.2728 -111.9219 254° West 463 533 40,000  Level Salt Lake Center
03:13AM 39.2397 -112.0792 255° West 456 525 40,000  Level Salt Lake Center
03:14AM 39.2050 -112.2372 254° West 456 525 40,000  Level Salt Lake Center
03:15AM 39.1708 -112.3942 254° West 458 527 40,000  Level Salt Lake Center
03:16AM 39.1342 -112.5528 253° West 462 532 40,000  Level Salt Lake Center
03:17AM 39.1006 -112.7117 255° West 464 534 40,000  Level Salt Lake Center
03:18AM 39.0639 -112.8672 253° West 459 528 40,000  Level Salt Lake Center
03:19AM 39.0294 -113.0222 254° West 455 524 40,000  Level Salt Lake Center
03:20AM 38.9939 -113.1756 253° West 451 519 40,000  Level Salt Lake Center
03:21AM 38.9578 -113.3322 254° West 456 525 40,000  Level Salt Lake Center
03:22AM 38.9217 -113.4861 253° West 456 525 40,000  Level Salt Lake Center
03:23AM 38.8778 -113.6742 253° West 461 531 40,000  Level Salt Lake Center
03:25AM 38.8042 -113.9836 253° West 458 527 40,000  Level Salt Lake Center
03:26AM 38.7672 -114.1392 253° West 459 528 40,000  Level Salt Lake Center
03:27AM 38.7303 -114.2953 253° West 461 531 40,000  Level Salt Lake Center
03:28AM 38.6911 -114.4522 252° West 464 534 40,000  Level Salt Lake Center
03:29AM 38.6536 -114.6092 253° West 464 534 40,000  Level Salt Lake Center
03:30AM 38.6147 -114.7661 252° West 464 534 40,000  Level Salt Lake Center
03:31AM 38.5761 -114.9214 252° West 463 533 40,000  Level Salt Lake Center
03:32AM 38.5364 -115.0783 252° West 464 534 40,000  Level Salt Lake Center
03:33AM 38.4975 -115.2372 253° West 469 540 40,000  Level Salt Lake Center
03:34AM 38.4539 -115.4136 253° West 469 540 40,000  Level Salt Lake Center
03:35AM 38.4139 -115.5742 252° West 474 545 40,000  Level Salt Lake Center
03:36AM 38.3717 -115.7331 251° West 474 545 40,000  Level Salt Lake Center
03:37AM 38.3242 -115.8875 249° West 471 542 40,000  Level Salt Lake Center
03:38AM 38.2769 -116.0419 249° West 468 539 40,000  Level Salt Lake Center
03:39AM 38.2289 -116.1972 249° West 470 541 40,000  Level Salt Lake Center
03:40AM 38.1817 -116.3494 249° West 464 534 40,000  Level Salt Lake Center
03:41AM 38.1325 -116.5058 248° West 472 543 40,000  Level Salt Lake Center
03:42AM 38.0828 -116.6639 248° West 478 550 40,000  Level Salt Lake Center
03:42AM 38.0517 -116.7575 247° West 477 549 40,000  Level Oakland Center
03:43AM 38.0017 -116.9142 248° West 476 548 40,000  Level Oakland Center
03:44AM 37.9511 -117.0733 248° West 477 549 40,000  Level Oakland Center
03:46AM 37.9108 -117.2014 248° West 480 552 40,000  Level Oakland Center
03:47AM 37.8611 -117.3583 248° West 476 548 40,000  Level Oakland Center
03:48AM 37.8114 -117.5139 248° West 474 545 40,000  Level Oakland Center
03:49AM 37.7614 -117.6675 248° West 470 541 40,000  Level Oakland Center
03:50AM 37.7119 -117.8186 248° West 467 537 40,000  Level Oakland Center
03:51AM 37.6611 -117.9717 247° West 471 542 40,000  Level Oakland Center
03:52AM 37.6008 -118.1553 248° West 473 544 40,000  Level Oakland Center
03:53AM 37.5639 -118.3114 253° West 471 542 40,000 -780 Level Oakland Center
03:54AM 37.5383 -118.4742 259° West 472 543 38,500 -1,740 Descending Oakland Center
03:55AM 37.5139 -118.6328 259° West 467 537 36,500 -2,040 Descending Oakland Center
03:56AM 37.4892 -118.7908 259° West 462 532 34,500 -1,260 Descending Oakland Center
03:57AM 37.4644 -118.9200 256° West 456 525 34,000 -300 Descending Oakland Center
03:58AM 37.4400 -119.0814 259° West 466 536 34,000  Level Oakland Center
03:59AM 37.4131 -119.2467 258° West 480 552 34,000 -900 Level Oakland Center
04:00AM 37.3858 -119.4086 258° West 477 549 32,200 -2,040 Descending Oakland Center
04:01AM 37.3594 -119.5767 259° West 479 551 29,900 -2,700 Descending Oakland Center
04:02AM 37.3275 -119.7689 258° West 480 552 26,900 -2,580 Descending Oakland Center
04:03AM 37.3050 -119.9039 258° West 477 549 24,800 -2,340 Descending Oakland Center
04:04AM 37.2789 -120.0617 258° West 464 534 22,300 -2,400 Descending Oakland Center
04:05AM 37.2528 -120.2094 258° West 437 503 20,100 -1,680 Descending Oakland Center
04:06AM 37.2297 -120.3500 258° West 415 478 19,000 -660 Descending Oakland Center
04:06AM 37.2167 -120.4667 262° West 470 541 19,000 -960 Level Northern Cal TRACON
04:07AM 37.1833 -120.6167 254° West 431 496 17,400 -1,860 Descending Northern Cal TRACON
04:08AM 37.1667 -120.7500 261° West 403 464 15,300 -2,340 Descending Northern Cal TRACON
04:09AM 37.1500 -120.8667 260° West 389 448 13,000 -2,280 Descending Northern Cal TRACON
04:11AM 37.1500 -121.0333 270° West 330 380 10,300 -1,800 Descending Northern Cal TRACON
04:11AM 37.1667 -121.1167 284° West 290 334 9,100 -1,380 Descending Northern Cal TRACON
04:12AM 37.1667 -121.2000 270° West 302 348 7,900 -1,260 Descending Northern Cal TRACON
04:13AM 37.1667 -121.3167 270° West 282 325 6,800 -1,080 Descending Northern Cal TRACON
04:14AM 37.1667 -121.4000 270° West 285 328 5,800 -840 Descending Northern Cal TRACON
04:15AM 37.1667 -121.5167 270° West 281 323 5,100 -360 Descending Northern Cal TRACON
04:16AM 37.1667 -121.6000 270° West 270 311 5,100  Level Northern Cal TRACON
04:17AM 37.1667 -121.7000 270° West 247 284 5,100 -600 Level Northern Cal TRACON
04:18AM 37.2000 -121.7500 310° West 217 250 4,000 -1,020 Descending Northern Cal TRACON
04:19AM 37.2500 -121.8000 321° Northwest 196 226 3,100 -480 Descending Northern Cal TRACON
04:20AM 37.2500 -121.8167 270° West 177 204 3,100 -840 Level Northern Cal TRACON
04:22AM 37.3083 -121.8731 322° Northwest 157 181 1,200 -1,140 Descending Oakland Center
04:23AM 37.3367 -121.9028 320° Northwest 144 166 500 9,300 Descending Oakland Center
04:24AM 37.3622 -121.9319 318° Northwest 131 151 20,000 19,500 Climbing Oakland Center